createdAt,value
2022-09-02T00:01:01.739Z,88.20
2022-09-02T00:03:31.243Z,88.20
2022-09-02T00:05:58.505Z,88.30
2022-09-02T00:08:25.309Z,88.30
2022-09-02T00:10:52.677Z,88.30
2022-09-02T00:13:21.151Z,88.20
2022-09-02T00:15:48.889Z,88.20
2022-09-02T00:18:18.143Z,88.10
2022-09-02T00:20:47.988Z,88.10
2022-09-02T00:23:16.658Z,88.00
2022-09-02T00:25:44.759Z,87.90
2022-09-02T00:28:12.701Z,87.90
2022-09-02T00:30:39.885Z,87.80
2022-09-02T00:33:08.140Z,87.70
2022-09-02T00:35:35.046Z,87.60
2022-09-02T00:38:01.866Z,87.60
2022-09-02T00:40:29.149Z,87.60
2022-09-02T00:42:56.139Z,87.50
2022-09-02T00:45:23.585Z,87.50
2022-09-02T00:47:51.782Z,87.50
2022-09-02T00:50:24.584Z,87.50
2022-09-02T00:52:56.419Z,87.50
2022-09-02T00:55:29.080Z,87.50
2022-09-02T00:58:09.486Z,87.50
2022-09-02T01:00:42.535Z,87.50
2022-09-02T01:03:15.423Z,88.10
2022-09-02T01:05:46.093Z,87.40
2022-09-02T01:08:15.579Z,87.40
2022-09-02T01:10:43.044Z,87.40
2022-09-02T01:13:13.015Z,87.40
2022-09-02T01:15:44.080Z,87.40
2022-09-02T01:18:15.525Z,87.40
2022-09-02T01:20:42.680Z,87.40
2022-09-02T01:23:09.566Z,87.30
2022-09-02T01:25:37.577Z,87.30
2022-09-02T01:28:07.721Z,87.30
2022-09-02T01:30:36.922Z,87.30
2022-09-02T01:33:03.710Z,87.30
2022-09-02T01:35:30.769Z,87.30
2022-09-02T01:37:58.952Z,87.20
2022-09-02T01:40:27.995Z,87.20
2022-09-02T01:42:57.387Z,87.90
2022-09-02T01:45:24.500Z,87.20
2022-09-02T01:47:52.276Z,87.10
2022-09-02T01:50:19.396Z,87.10
2022-09-02T01:52:46.125Z,87.10
2022-09-02T01:55:12.944Z,87.10
2022-09-02T01:57:39.736Z,87.20
2022-09-02T02:00:08.960Z,87.20
2022-09-02T02:02:35.702Z,87.10
2022-09-02T02:05:02.686Z,87.20
2022-09-02T02:07:29.388Z,87.10
2022-09-02T02:09:56.478Z,87.00
2022-09-02T02:12:23.507Z,87.00
2022-09-02T02:14:50.196Z,87.00
2022-09-02T02:17:17.062Z,87.00
2022-09-02T02:19:43.886Z,87.00
2022-09-02T02:22:11.248Z,87.00
2022-09-02T02:24:38.779Z,87.00
2022-09-02T02:27:05.995Z,87.10
2022-09-02T02:29:32.758Z,87.00
2022-09-02T02:31:59.542Z,87.00
2022-09-02T02:34:26.504Z,87.00
2022-09-02T02:36:53.662Z,87.00
2022-09-02T02:39:20.752Z,87.10
2022-09-02T02:41:47.452Z,87.10
2022-09-02T02:44:14.346Z,87.00
2022-09-02T02:46:41.144Z,87.00
2022-09-02T02:49:07.968Z,87.10
2022-09-02T02:51:35.236Z,87.10
2022-09-02T02:54:02.858Z,87.10
2022-09-02T02:56:30.720Z,87.10
2022-09-02T02:58:59.863Z,87.10
2022-09-02T03:01:26.586Z,87.20
2022-09-02T03:03:54.184Z,87.20
2022-09-02T03:06:23.879Z,87.20
2022-09-02T03:08:53.543Z,87.30
2022-09-02T03:11:22.515Z,87.40
2022-09-02T03:13:51.072Z,87.40
2022-09-02T03:16:20.011Z,87.30
2022-09-02T03:18:48.580Z,87.40
2022-09-02T03:21:16.084Z,87.40
2022-09-02T03:23:43.846Z,87.40
2022-09-02T03:26:12.892Z,87.40
2022-09-02T03:28:39.781Z,87.40
2022-09-02T03:31:07.842Z,87.30
2022-09-02T03:33:34.565Z,87.40
2022-09-02T03:36:01.331Z,87.40
2022-09-02T03:38:28.053Z,87.30
2022-09-02T03:40:54.955Z,88.00
2022-09-02T03:43:21.908Z,87.40
2022-09-02T03:45:48.923Z,87.40
2022-09-02T03:48:15.766Z,87.40
2022-09-02T03:50:44.835Z,87.40
2022-09-02T03:53:23.381Z,87.40
2022-09-02T03:55:50.665Z,87.40
2022-09-02T03:58:18.215Z,87.50
2022-09-02T04:00:50.379Z,87.50
2022-09-02T04:03:17.069Z,87.60
2022-09-02T04:05:50.705Z,87.60
2022-09-02T04:08:18.337Z,87.70
2022-09-02T04:10:45.336Z,87.80
2022-09-02T04:13:12.103Z,87.90
2022-09-02T04:15:44.756Z,88.00
2022-09-02T04:18:12.054Z,88.20
2022-09-02T04:20:40.303Z,88.20
2022-09-02T04:23:07.660Z,88.20
2022-09-02T04:25:34.380Z,88.40
2022-09-02T04:28:01.104Z,88.40
2022-09-02T04:30:28.018Z,88.40
2022-09-02T04:32:54.711Z,88.40
2022-09-02T04:35:21.488Z,88.30
2022-09-02T04:37:49.059Z,88.40
2022-09-02T04:40:16.111Z,88.20
2022-09-02T04:42:42.884Z,88.30
2022-09-02T04:45:10.100Z,88.20
2022-09-02T04:47:36.851Z,88.10
2022-09-02T04:50:04.419Z,88.00
2022-09-02T04:52:31.526Z,88.00
2022-09-02T04:54:58.287Z,88.00
2022-09-02T04:57:25.368Z,88.00
2022-09-02T04:59:52.176Z,88.00
2022-09-02T05:02:20.264Z,87.90
2022-09-02T05:04:47.216Z,87.90
2022-09-02T05:07:14.138Z,87.80
2022-09-02T05:09:40.872Z,87.80
2022-09-02T05:12:07.650Z,87.70
2022-09-02T05:14:34.355Z,87.60
2022-09-02T05:17:06.739Z,87.60
2022-09-02T05:19:34.214Z,87.60
2022-09-02T05:22:01.880Z,87.50
2022-09-02T05:24:29.582Z,87.40
2022-09-02T05:26:56.485Z,87.40
2022-09-02T05:29:23.823Z,87.40
2022-09-02T05:31:50.767Z,87.40
2022-09-02T05:34:17.995Z,87.40
2022-09-02T05:36:45.540Z,87.30
2022-09-02T05:39:12.396Z,87.30
2022-09-02T05:41:39.199Z,87.40
2022-09-02T05:44:07.058Z,87.30
2022-09-02T05:46:34.747Z,87.30
2022-09-02T05:49:17.224Z,87.30
2022-09-02T05:51:47.187Z,87.30
2022-09-02T05:54:28.654Z,87.20
2022-09-02T05:56:57.745Z,87.20
2022-09-02T05:59:26.977Z,87.30
2022-09-02T06:01:54.320Z,87.20
2022-09-02T06:04:22.626Z,87.20
2022-09-02T06:06:50.344Z,87.10
2022-09-02T06:09:19.831Z,87.00
2022-09-02T06:11:49.328Z,86.90
2022-09-02T06:14:21.871Z,86.80
2022-09-02T06:16:50.494Z,86.70
2022-09-02T06:19:20.206Z,86.70
2022-09-02T06:21:48.378Z,86.60
2022-09-02T06:24:15.343Z,86.30
2022-09-02T06:26:42.455Z,86.20
2022-09-02T06:29:10.498Z,86.20
2022-09-02T06:31:37.549Z,86.00
2022-09-02T06:34:04.712Z,85.90
2022-09-02T06:36:31.754Z,85.80
2022-09-02T06:38:59.780Z,85.80
2022-09-02T06:41:29.646Z,85.50
2022-09-02T06:43:58.803Z,85.40
2022-09-02T06:46:36.111Z,85.30
2022-09-02T06:49:05.243Z,85.20
2022-09-02T06:51:40.731Z,85.10
2022-09-02T06:54:10.878Z,85.00
2022-09-02T06:56:43.905Z,84.60
2022-09-02T06:59:14.146Z,84.50
2022-09-02T07:01:41.194Z,84.30
2022-09-02T07:04:26.765Z,84.20
2022-09-02T07:06:54.932Z,83.70
2022-09-02T07:09:24.786Z,83.60
2022-09-02T07:11:51.701Z,83.60
2022-09-02T07:14:19.855Z,83.30
2022-09-02T07:16:49.787Z,82.90
2022-09-02T07:19:20.548Z,82.60
2022-09-02T07:21:49.151Z,82.80
2022-09-02T07:24:17.455Z,82.50
2022-09-02T07:26:45.419Z,82.40
2022-09-02T07:29:12.835Z,82.00
2022-09-02T07:31:41.962Z,81.10
2022-09-02T07:34:10.061Z,81.20
2022-09-02T07:36:38.526Z,80.90
2022-09-02T07:39:07.133Z,80.30
2022-09-02T07:41:34.752Z,80.00
2022-09-02T07:44:01.769Z,79.70
2022-09-02T07:46:31.253Z,79.20
2022-09-02T07:49:04.930Z,79.00
2022-09-02T07:51:38.327Z,78.60
2022-09-02T07:54:06.647Z,78.10
2022-09-02T07:56:33.384Z,77.50
2022-09-02T07:59:00.189Z,76.90
2022-09-02T08:01:27.029Z,76.90
2022-09-02T08:03:54.073Z,76.80
2022-09-02T08:06:33.607Z,76.00
2022-09-02T08:09:03.520Z,75.60
2022-09-02T08:11:32.661Z,75.70
2022-09-02T08:14:00.636Z,75.50
2022-09-02T08:16:28.916Z,75.10
2022-09-02T08:18:55.941Z,74.10
2022-09-02T08:21:22.587Z,73.80
2022-09-02T08:23:51.268Z,73.90
2022-09-02T08:26:18.921Z,73.00
2022-09-02T08:28:45.726Z,72.90
2022-09-02T08:31:12.403Z,72.60
2022-09-02T08:33:39.159Z,72.50
2022-09-02T08:36:08.374Z,72.70
2022-09-02T08:38:36.033Z,72.40
2022-09-02T08:41:03.017Z,72.10
2022-09-02T08:43:40.435Z,72.10
2022-09-02T08:46:11.263Z,71.70
2022-09-02T08:48:45.182Z,71.50
2022-09-02T08:51:19.016Z,71.10
2022-09-02T08:53:58.944Z,70.10
2022-09-02T08:56:28.940Z,69.80
2022-09-02T08:58:59.052Z,69.10
2022-09-02T09:01:44.395Z,69.50
2022-09-02T09:04:53.419Z,68.30
2022-09-02T09:07:26.990Z,67.60
2022-09-02T09:10:19.642Z,67.90
2022-09-02T09:12:53.112Z,66.40
2022-09-02T09:15:20.211Z,65.90
2022-09-02T09:17:56.775Z,66.30
2022-09-02T09:20:27.829Z,64.60
2022-09-02T09:23:02.267Z,64.90
2022-09-02T09:25:30.081Z,64.30
2022-09-02T09:27:58.034Z,64.30
2022-09-02T09:30:25.052Z,65.10
2022-09-02T09:32:54.841Z,64.90
2022-09-02T09:35:22.075Z,62.60
2022-09-02T09:37:50.515Z,62.80
2022-09-02T09:40:23.120Z,61.70
2022-09-02T09:42:56.788Z,61.90
2022-09-02T09:45:28.443Z,61.30
2022-09-02T09:48:17.868Z,60.80
2022-09-02T09:50:55.084Z,61.40
2022-09-02T09:53:24.708Z,62.10
2022-09-02T09:55:57.530Z,62.00
2022-09-02T09:58:42.607Z,62.20
2022-09-02T10:01:13.238Z,61.00
2022-09-02T10:03:49.498Z,60.90
2022-09-02T10:06:19.749Z,60.60
2022-09-02T10:08:53.427Z,60.90
2022-09-02T10:11:24.156Z,60.70
2022-09-02T10:13:50.950Z,59.80
2022-09-02T10:16:33.011Z,60.60
2022-09-02T10:19:39.127Z,60.70
2022-09-02T10:22:48.622Z,60.00
2022-09-02T10:25:34.468Z,59.30
2022-09-02T10:28:19.335Z,59.10
2022-09-02T10:31:05.907Z,58.70
2022-09-02T10:33:42.466Z,58.50
2022-09-02T10:36:29.026Z,58.50
2022-09-02T10:39:34.833Z,58.90
2022-09-02T10:42:23.124Z,58.10
2022-09-02T10:45:18.642Z,57.80
2022-09-02T10:48:16.898Z,58.20
2022-09-02T10:51:08.068Z,58.00
2022-09-02T10:53:48.626Z,58.10
2022-09-02T10:56:42.652Z,56.80
2022-09-02T10:59:19.704Z,57.30
2022-09-02T11:02:00.422Z,56.90
2022-09-02T11:05:04.912Z,57.90
2022-09-02T11:07:37.466Z,58.10
2022-09-02T11:10:51.013Z,57.20
2022-09-02T11:13:26.559Z,56.30
2022-09-02T11:15:58.085Z,57.00
2022-09-02T11:18:32.949Z,57.20
2022-09-02T11:21:32.006Z,57.80
2022-09-02T11:24:16.630Z,55.80
2022-09-02T11:26:56.308Z,56.60
2022-09-02T11:29:44.919Z,56.20
2022-09-02T11:32:22.004Z,55.20
2022-09-02T11:34:52.472Z,56.60
2022-09-02T11:37:40.255Z,56.40
2022-09-02T11:40:30.499Z,55.90
2022-09-02T11:43:04.499Z,56.70
2022-09-02T11:46:22.910Z,54.60
2022-09-02T11:49:17.402Z,53.70
2022-09-02T11:52:02.563Z,55.30
2022-09-02T11:54:37.616Z,55.90
2022-09-02T11:57:06.436Z,54.90
2022-09-02T11:59:51.749Z,54.90
2022-09-02T12:02:38.716Z,54.20
2022-09-02T12:05:30.610Z,53.80
2022-09-02T12:07:58.284Z,53.30
2022-09-02T12:10:46.902Z,53.20
2022-09-02T12:13:38.340Z,53.20
2022-09-02T12:16:21.279Z,52.50
2022-09-02T12:18:54.161Z,53.40
2022-09-02T12:21:23.138Z,52.80
2022-09-02T12:23:53.951Z,53.40
2022-09-02T12:26:23.136Z,53.40
2022-09-02T12:28:53.603Z,53.30
2022-09-02T12:31:22.514Z,52.50
2022-09-02T12:33:49.954Z,52.40
2022-09-02T12:36:52.006Z,52.40
2022-09-02T12:39:25.659Z,51.20
2022-09-02T12:42:07.862Z,52.40
2022-09-02T12:45:11.607Z,53.00
2022-09-02T12:48:07.220Z,52.10
2022-09-02T12:50:55.375Z,51.50
2022-09-02T12:53:31.339Z,51.50
2022-09-02T12:56:09.448Z,52.40
2022-09-02T12:59:06.716Z,52.10
2022-09-02T13:01:37.952Z,51.80
2022-09-02T13:04:50.695Z,51.20
2022-09-02T13:07:43.294Z,50.40
2022-09-02T13:10:29.806Z,50.60
2022-09-02T13:12:57.351Z,51.20
2022-09-02T13:15:49.316Z,51.20
2022-09-02T13:18:31.263Z,50.00
2022-09-02T13:21:02.115Z,50.40
2022-09-02T13:23:45.134Z,50.40
2022-09-02T13:26:47.881Z,50.80
2022-09-02T13:29:44.678Z,51.20
2022-09-02T13:32:20.728Z,51.10
2022-09-02T13:34:50.133Z,50.50
2022-09-02T13:37:39.071Z,50.40
2022-09-02T13:40:17.804Z,50.70
2022-09-02T13:42:53.176Z,50.90
2022-09-02T13:45:22.703Z,51.20
2022-09-02T13:47:55.134Z,50.90
2022-09-02T13:50:26.875Z,50.20
2022-09-02T13:55:54.622Z,50.90
2022-09-02T13:58:43.231Z,51.00
2022-09-02T14:01:17.958Z,50.30
2022-09-02T14:03:49.988Z,51.30
2022-09-02T14:06:18.640Z,50.40
2022-09-02T14:08:45.592Z,51.50
2022-09-02T14:11:16.892Z,51.90
2022-09-02T14:13:47.804Z,51.90
2022-09-02T14:16:36.247Z,51.80
2022-09-02T14:19:08.139Z,51.20
2022-09-02T14:21:36.288Z,50.90
2022-09-02T14:24:03.914Z,51.30
2022-09-02T14:26:37.603Z,50.80
2022-09-02T14:29:07.944Z,51.70
2022-09-02T14:31:35.285Z,51.40
2022-09-02T14:34:04.407Z,51.40
2022-09-02T14:36:35.436Z,51.70
2022-09-02T14:39:16.991Z,52.00
2022-09-02T14:41:52.246Z,51.10
2022-09-02T14:44:32.522Z,50.90
2022-09-02T14:47:01.560Z,50.80
2022-09-02T14:49:34.131Z,51.10
2022-09-02T14:52:03.849Z,51.70
2022-09-02T14:54:39.735Z,51.50
2022-09-02T14:57:24.463Z,51.20
2022-09-02T14:59:52.789Z,50.80
2022-09-02T15:02:26.533Z,51.70
2022-09-02T15:05:01.110Z,52.00
2022-09-02T15:07:28.155Z,52.10
2022-09-02T15:09:55.200Z,52.00
2022-09-02T15:12:25.664Z,52.00
2022-09-02T15:14:52.846Z,51.70
2022-09-02T15:17:20.751Z,51.50
2022-09-02T15:19:47.683Z,51.70
2022-09-02T15:22:14.922Z,51.10
2022-09-02T15:24:43.436Z,51.60
2022-09-02T15:27:11.007Z,51.90
2022-09-02T15:29:37.882Z,52.20
2022-09-02T15:32:05.130Z,52.60
2022-09-02T15:34:34.569Z,52.70
2022-09-02T15:37:01.917Z,52.40
2022-09-02T15:39:30.181Z,52.20
2022-09-02T15:41:57.558Z,52.30
2022-09-02T15:44:29.211Z,52.10
2022-09-02T15:46:56.614Z,52.50
2022-09-02T15:49:24.083Z,52.70
2022-09-02T15:51:52.412Z,52.60
2022-09-02T15:54:23.491Z,52.40
2022-09-02T15:56:54.973Z,52.70
2022-09-02T15:59:22.070Z,52.70
2022-09-02T16:01:50.769Z,52.90
2022-09-02T16:04:17.593Z,53.10
2022-09-02T16:06:48.111Z,53.30
2022-09-02T16:09:17.075Z,53.40
2022-09-02T16:11:55.976Z,53.20
2022-09-02T16:14:24.047Z,53.30
2022-09-02T16:16:53.157Z,53.20
2022-09-02T16:19:24.302Z,53.50
2022-09-02T16:21:51.816Z,53.60
2022-09-02T16:24:21.324Z,53.60
2022-09-02T16:26:48.476Z,53.60
2022-09-02T16:29:17.644Z,53.60
2022-09-02T16:32:01.954Z,53.80
2022-09-02T16:34:33.251Z,53.80
2022-09-02T16:37:00.996Z,53.80
2022-09-02T16:39:27.845Z,53.70
2022-09-02T16:41:54.726Z,53.80
2022-09-02T16:44:23.042Z,54.00
2022-09-02T16:46:50.875Z,54.00
2022-09-02T16:49:19.589Z,53.90
2022-09-02T16:51:57.821Z,54.10
2022-09-02T16:54:31.461Z,53.90
2022-09-02T16:57:00.036Z,54.00
2022-09-02T16:59:27.303Z,54.00
2022-09-02T17:01:54.093Z,54.10
2022-09-02T17:04:20.857Z,54.30
2022-09-02T17:06:47.715Z,54.30
2022-09-02T17:09:14.797Z,54.50
2022-09-02T17:11:42.563Z,54.60
2022-09-02T17:14:11.402Z,54.70
2022-09-02T17:16:44.030Z,54.70
2022-09-02T17:19:11.539Z,54.80
2022-09-02T17:21:39.714Z,54.80
2022-09-02T17:24:07.987Z,54.90
2022-09-02T17:26:37.161Z,55.00
2022-09-02T17:29:26.310Z,55.10
2022-09-02T17:31:58.791Z,55.20
2022-09-02T17:34:26.133Z,55.30
2022-09-02T17:36:53.287Z,55.40
2022-09-02T17:39:20.208Z,55.50
2022-09-02T17:41:57.359Z,55.70
2022-09-02T17:44:27.544Z,55.70
2022-09-02T17:46:58.031Z,55.80
2022-09-02T17:49:24.740Z,55.90
2022-09-02T17:51:51.627Z,55.90
2022-09-02T17:54:19.245Z,55.90
2022-09-02T17:56:54.768Z,56.00
2022-09-02T17:59:39.588Z,56.10
2022-09-02T18:02:15.816Z,56.10
2022-09-02T18:04:58.146Z,56.10
2022-09-02T18:07:36.265Z,56.10
2022-09-02T18:10:03.130Z,56.00
2022-09-02T18:12:30.084Z,56.10
2022-09-02T18:15:02.024Z,56.10
2022-09-02T18:17:37.028Z,56.10
2022-09-02T18:20:12.616Z,56.20
2022-09-02T18:22:57.888Z,56.20
2022-09-02T18:25:24.568Z,56.40
2022-09-02T18:28:17.288Z,56.40
2022-09-02T18:31:07.218Z,56.40
2022-09-02T18:33:50.860Z,56.30
2022-09-02T18:36:33.360Z,56.40
2022-09-02T18:39:21.142Z,56.40
2022-09-02T18:42:11.047Z,56.40
2022-09-02T18:44:46.198Z,56.40
2022-09-02T18:47:17.667Z,56.50
2022-09-02T18:49:45.670Z,56.50
2022-09-02T18:52:12.545Z,56.50
2022-09-02T18:54:54.149Z,56.40
2022-09-02T18:57:21.305Z,56.50
2022-09-02T19:00:09.423Z,56.40
2022-09-02T19:03:01.465Z,56.50
2022-09-02T19:05:33.729Z,56.60
2022-09-02T19:08:23.434Z,56.60
2022-09-02T19:11:01.771Z,56.60
2022-09-02T19:13:30.024Z,56.70
2022-09-02T19:16:02.625Z,56.70
2022-09-02T19:18:31.487Z,56.80
2022-09-02T19:20:58.411Z,56.80
2022-09-02T19:23:26.334Z,56.90
2022-09-02T19:25:53.203Z,57.00
2022-09-02T19:28:21.002Z,57.00
2022-09-02T19:30:47.955Z,57.00
2022-09-02T19:33:16.148Z,57.10
2022-09-02T19:35:46.758Z,57.20
2022-09-02T19:38:21.869Z,57.20
2022-09-02T19:40:49.390Z,57.30
2022-09-02T19:43:16.742Z,57.40
2022-09-02T19:45:43.978Z,57.50
2022-09-02T19:48:11.413Z,57.60
2022-09-02T19:50:44.714Z,57.70
2022-09-02T19:53:17.454Z,57.80
2022-09-02T19:55:44.199Z,57.90
2022-09-02T19:58:10.908Z,57.90
2022-09-02T20:00:42.191Z,57.90
2022-09-02T20:03:10.099Z,58.00
2022-09-02T20:05:38.771Z,58.00
2022-09-02T20:08:05.768Z,58.10
2022-09-02T20:10:32.413Z,58.10
2022-09-02T20:12:59.482Z,58.20
2022-09-02T20:15:26.130Z,58.30
2022-09-02T20:17:52.881Z,58.40
2022-09-02T20:20:22.723Z,58.50
2022-09-02T20:22:55.811Z,58.60
2022-09-02T20:25:28.266Z,58.60
2022-09-02T20:28:20.726Z,58.70
2022-09-02T20:30:53.936Z,58.90
2022-09-02T20:33:22.031Z,58.90
2022-09-02T20:36:16.229Z,59.00
2022-09-02T20:39:27.948Z,59.10
2022-09-02T20:42:22.331Z,59.20
2022-09-02T20:45:33.477Z,59.20
2022-09-02T20:48:27.692Z,59.20
2022-09-02T20:51:09.227Z,59.10
2022-09-02T20:54:04.564Z,59.40
2022-09-02T20:57:08.168Z,59.30
2022-09-02T20:59:56.708Z,59.30
2022-09-02T21:02:31.495Z,59.30
2022-09-02T21:05:08.299Z,59.30
2022-09-02T21:07:45.609Z,59.60
2022-09-02T21:10:31.028Z,59.40
2022-09-02T21:13:31.259Z,59.60
2022-09-02T21:16:19.515Z,59.40
2022-09-02T21:19:12.237Z,59.50
2022-09-02T21:22:04.957Z,59.60
2022-09-02T21:24:56.356Z,59.60
2022-09-02T21:27:35.388Z,59.60
2022-09-02T21:30:07.052Z,59.50
2022-09-02T21:32:44.954Z,59.70
2022-09-02T21:35:27.151Z,59.00
2022-09-02T21:38:23.608Z,59.70
2022-09-02T21:41:32.071Z,59.80
2022-09-02T21:44:51.145Z,59.80
2022-09-02T21:47:54.918Z,59.90
2022-09-02T21:51:02.551Z,59.80
2022-09-02T21:53:56.966Z,60.10
2022-09-02T21:56:36.890Z,60.00
2022-09-02T21:59:20.611Z,60.10
2022-09-02T22:01:58.287Z,60.90
2022-09-02T22:04:42.468Z,60.30
2022-09-02T22:07:31.410Z,60.60
2022-09-02T22:10:06.525Z,60.90
2022-09-02T22:12:39.994Z,60.90
2022-09-02T22:15:59.892Z,61.50
2022-09-02T22:18:38.277Z,61.00
2022-09-02T22:21:48.453Z,61.10
2022-09-02T22:24:27.590Z,61.30
2022-09-02T22:27:38.231Z,61.70
2022-09-02T22:30:16.374Z,61.90
2022-09-02T22:32:54.343Z,62.20
2022-09-02T22:35:43.018Z,62.40
2022-09-02T22:38:31.586Z,63.00
2022-09-02T22:41:24.699Z,62.90
2022-09-02T22:44:01.011Z,63.10
2022-09-02T22:47:11.624Z,63.30
2022-09-02T22:50:03.920Z,63.70
2022-09-02T22:53:00.293Z,63.60
2022-09-02T22:55:44.512Z,63.70
2022-09-02T22:58:33.751Z,64.20
2022-09-02T23:01:25.566Z,64.30
2022-09-02T23:04:04.426Z,64.30
2022-09-02T23:06:34.861Z,65.70
2022-09-02T23:09:09.459Z,65.60
2022-09-02T23:12:04.423Z,65.30
2022-09-02T23:14:55.133Z,65.60
2022-09-02T23:17:58.747Z,65.60
2022-09-02T23:20:46.399Z,65.90
2022-09-02T23:23:37.603Z,65.80
2022-09-02T23:26:45.183Z,65.70
2022-09-02T23:29:26.420Z,66.30
2022-09-02T23:31:54.081Z,66.50
2022-09-02T23:34:43.846Z,66.40
2022-09-02T23:37:46.271Z,67.20
2022-09-02T23:40:26.360Z,67.00
2022-09-02T23:42:53.707Z,66.80
2022-09-02T23:45:26.148Z,66.70
2022-09-02T23:48:11.622Z,66.70
2022-09-02T23:50:56.197Z,67.00
2022-09-02T23:53:50.612Z,66.90
2022-09-02T23:56:33.531Z,66.80
2022-09-02T23:59:20.088Z,66.50
